Time;durP1;ratioP1;P1;durP2;ratioP2;P2;SDS_P1;SDS_P2;PMS_P1;PMS_P2;Temp;Humidity;BMP_temperature;BMP_pressure;BME280_temperature;BME280_humidity;BME280_pressure;Samples;Min_cycle;Max_cycle;Signal;HPM_P1;HPM_P2
2022/07/17 00:02:14;;;;;;;4.80;1.55;;;;;;;22.18;32.92;99234.47;4472886;32;20105;-77
2022/07/17 00:04:40;;;;;;;6.50;1.60;;;;;;;22.42;32.61;99233.13;4472988;32;20088;-77
2022/07/17 00:07:05;;;;;;;5.45;1.55;;;;;;;22.30;32.72;99234.31;4487236;32;20115;-77
2022/07/17 00:09:31;;;;;;;5.50;1.40;;;;;;;22.27;32.71;99243.53;4487313;32;20100;-77
2022/07/17 00:11:56;;;;;;;6.50;1.40;;;;;;;22.23;32.82;99238.56;4487217;32;20115;-76
2022/07/17 00:14:22;;;;;;;2.17;1.17;;;;;;;22.12;32.93;99240.44;4487100;32;20092;-77
2022/07/17 00:16:47;;;;;;;4.22;1.27;;;;;;;22.13;32.87;99236.75;4487208;32;20088;-77
2022/07/17 00:19:12;;;;;;;5.10;1.27;;;;;;;22.31;32.60;99246.72;4487038;32;20140;-77
2022/07/17 00:21:38;;;;;;;4.28;1.40;;;;;;;22.09;33.01;99248.75;4487321;32;20151;-77
2022/07/17 00:24:06;;;;;;;3.75;1.30;;;;;;;22.14;33.01;99243.81;4487093;32;20137;-77
2022/07/17 00:26:32;;;;;;;4.97;1.30;;;;;;;22.14;32.98;99265.28;4487068;32;20376;-77
2022/07/17 00:28:58;;;;;;;4.70;1.35;;;;;;;22.12;33.15;99255.69;4487029;32;20158;-77
2022/07/17 00:31:23;;;;;;;4.70;1.25;;;;;;;22.23;33.03;99255.50;4472751;32;20137;-77
2022/07/17 00:33:49;;;;;;;5.00;1.30;;;;;;;21.95;33.57;99247.41;4487001;32;20107;-77
2022/07/17 00:36:14;;;;;;;4.28;1.08;;;;;;;21.92;33.68;99257.56;4486684;32;20111;-77
2022/07/17 00:38:40;;;;;;;5.35;1.40;;;;;;;21.72;34.00;99264.81;4486645;32;20096;-77
2022/07/17 00:41:05;;;;;;;4.40;1.30;;;;;;;22.05;33.37;99254.56;4472442;32;20101;-77
2022/07/17 00:43:31;;;;;;;5.87;1.37;;;;;;;21.92;33.69;99260.25;4486764;32;20092;-77
2022/07/17 00:46:01;;;;;;;4.62;1.17;;;;;;;21.90;33.84;99262.22;4472343;32;20378;-77
2022/07/17 00:48:27;;;;;;;3.03;1.17;;;;;;;21.77;34.11;99263.41;4472489;32;20143;-77
2022/07/17 00:50:53;;;;;;;4.45;1.15;;;;;;;21.72;34.24;99262.13;4486525;32;20136;-77
2022/07/17 00:53:19;;;;;;;6.53;1.40;;;;;;;21.73;34.33;99269.16;4485584;32;20107;-77
2022/07/17 00:55:47;;;;;;;5.40;1.37;;;;;;;21.60;34.55;99275.69;4486654;32;20102;-77
2022/07/17 00:58:24;;;;;;;3.85;1.20;;;;;;;21.49;34.87;99266.94;4486831;32;20093;-77
2022/07/17 01:00:51;;;;;;;3.95;1.17;;;;;;;21.40;35.08;99266.78;4486714;32;20118;-77
2022/07/17 01:03:18;;;;;;;3.62;1.60;;;;;;;21.64;34.80;99273.56;4486718;32;20452;-77
2022/07/17 01:05:44;;;;;;;5.32;1.40;;;;;;;21.49;35.03;99269.63;4472689;32;20103;-77
2022/07/17 01:08:09;;;;;;;4.20;1.30;;;;;;;21.44;35.14;99271.88;4471970;32;20432;-77
2022/07/17 01:10:35;;;;;;;4.80;1.35;;;;;;;21.21;35.58;99278.34;4486305;32;20333;-77
2022/07/17 01:13:01;;;;;;;6.00;1.40;;;;;;;21.41;35.12;99272.97;4486161;32;20088;-77
2022/07/17 01:15:26;;;;;;;3.58;1.10;;;;;;;21.16;35.59;99266.34;4486231;32;20076;-77
2022/07/17 01:17:52;;;;;;;4.65;1.40;;;;;;;21.19;35.50;99274.12;4471972;32;20104;-77
2022/07/17 01:20:18;;;;;;;3.03;1.20;;;;;;;21.32;35.17;99263.94;4486050;32;20130;-77
2022/07/17 01:22:49;;;;;;;4.80;1.30;;;;;;;21.38;34.73;99267.91;4471883;32;20097;-77
2022/07/17 01:25:16;;;;;;;3.95;1.20;;;;;;;21.29;34.84;99274.12;4486138;32;20521;-77
2022/07/17 01:27:41;;;;;;;4.82;1.20;;;;;;;21.28;34.78;99264.38;4458988;32;20163;-77
2022/07/17 01:30:08;;;;;;;4.53;1.27;;;;;;;21.42;34.54;99277.34;4486068;32;20104;-77
2022/07/17 01:32:35;;;;;;;3.17;1.27;;;;;;;21.31;34.74;99278.34;4485846;32;20104;-77
2022/07/17 01:35:01;;;;;;;3.67;1.23;;;;;;;21.24;35.00;99285.25;4471732;32;20083;-77
2022/07/17 01:37:28;;;;;;;4.72;1.23;;;;;;;21.23;35.10;99290.72;4485857;32;20127;-77
2022/07/17 01:39:53;;;;;;;3.65;1.20;;;;;;;21.08;35.35;99282.28;4485914;32;20180;-77
2022/07/17 01:42:21;;;;;;;3.67;1.20;;;;;;;21.18;35.26;99277.78;4485861;32;20092;-77
2022/07/17 01:44:46;;;;;;;2.85;1.10;;;;;;;20.91;35.95;99275.75;4485713;32;20187;-77
2022/07/17 01:47:13;;;;;;;3.37;1.15;;;;;;;20.83;36.20;99283.63;4485748;32;20462;-77
2022/07/17 01:49:38;;;;;;;3.12;1.17;;;;;;;20.86;36.47;99280.66;4485705;32;20122;-77
2022/07/17 01:52:04;;;;;;;4.18;1.40;;;;;;;20.93;36.48;99287.19;4471309;32;20093;-77
2022/07/17 01:54:30;;;;;;;4.95;1.37;;;;;;;20.92;36.53;99286.34;4485507;32;20115;-77
2022/07/17 01:56:55;;;;;;;4.40;1.40;;;;;;;20.80;36.80;99290.09;4485555;32;20101;-77
2022/07/17 01:59:20;;;;;;;4.82;1.48;;;;;;;20.80;36.73;99282.06;4485634;32;20092;-77
2022/07/17 02:01:46;;;;;;;6.00;1.33;;;;;;;20.63;37.10;99291.63;4485615;32;20127;-77
2022/07/17 02:04:12;;;;;;;5.60;1.20;;;;;;;20.47;37.32;99292.06;4485468;32;20119;-77
2022/07/17 02:06:37;;;;;;;5.22;1.35;;;;;;;20.57;37.01;99290.28;4487623;32;20363;-77
2022/07/17 02:09:02;;;;;;;3.80;1.30;;;;;;;20.52;36.99;99305.06;4473555;32;20088;-77
2022/07/17 02:11:28;;;;;;;2.83;1.20;;;;;;;20.41;36.98;99301.47;4487841;32;20136;-77
2022/07/17 02:13:53;;;;;;;8.05;1.25;;;;;;;20.34;37.08;99305.69;4487809;32;20468;-77
2022/07/17 02:16:19;;;;;;;4.65;1.27;;;;;;;20.46;36.80;99309.13;4487792;32;20352;-77
2022/07/17 02:18:44;;;;;;;3.55;1.33;;;;;;;20.43;36.79;99304.84;4487807;32;20088;-77
2022/07/17 02:21:10;;;;;;;4.28;1.50;;;;;;;20.44;36.77;99313.75;4473415;32;20341;-77
2022/07/17 02:23:35;;;;;;;4.43;1.12;;;;;;;20.48;36.57;99312.50;4487739;32;20085;-77
2022/07/17 02:26:00;;;;;;;2.80;1.00;;;;;;;20.29;36.92;99315.09;4487769;32;20443;-77
2022/07/17 02:28:26;;;;;;;4.90;1.15;;;;;;;20.34;36.86;99316.38;4487675;32;20396;-77
2022/07/17 02:30:51;;;;;;;3.87;1.45;;;;;;;20.49;36.45;99321.38;4487594;32;20107;-77
2022/07/17 02:33:17;;;;;;;3.67;1.20;;;;;;;20.36;36.74;99327.81;4487667;32;20076;-77
2022/07/17 02:35:42;;;;;;;4.35;1.50;;;;;;;20.30;36.68;99320.31;4473489;32;20096;-77
2022/07/17 02:38:08;;;;;;;3.45;1.10;;;;;;;20.12;37.01;99324.56;4473540;32;20232;-77
2022/07/17 02:40:33;;;;;;;3.83;1.12;;;;;;;20.28;36.62;99316.06;4487600;32;20115;-77
2022/07/17 02:42:58;;;;;;;2.78;1.15;;;;;;;20.33;36.31;99325.38;4487665;32;20573;-77
2022/07/17 02:45:24;;;;;;;3.72;1.20;;;;;;;20.25;36.49;99327.88;4487579;32;20092;-77
2022/07/17 02:47:50;;;;;;;3.95;1.12;;;;;;;20.08;36.70;99336.50;4487764;32;20087;-77
2022/07/17 02:50:16;;;;;;;3.12;1.10;;;;;;;20.35;36.27;99333.28;4487768;32;20096;-77
2022/07/17 02:52:43;;;;;;;4.75;1.40;;;;;;;20.17;36.66;99330.37;4487769;32;20101;-77
2022/07/17 02:55:09;;;;;;;4.47;1.40;;;;;;;19.93;37.12;99334.12;4487471;32;20123;-77
2022/07/17 02:57:36;;;;;;;3.60;1.10;;;;;;;19.77;37.35;99339.09;4487593;32;20364;-77
2022/07/17 03:00:07;;;;;;;4.37;1.50;;;;;;;20.03;36.91;99336.91;4473209;32;20091;-77
2022/07/17 03:02:32;;;;;;;6.43;1.40;;;;;;;20.07;36.79;99341.00;4487597;32;20080;-77
2022/07/17 03:04:57;;;;;;;4.22;1.37;;;;;;;20.14;36.51;99346.66;4473153;32;20143;-77
2022/07/17 03:07:23;;;;;;;5.07;1.30;;;;;;;20.17;36.19;99344.59;4487454;32;20084;-77
2022/07/17 03:09:48;;;;;;;3.85;1.05;;;;;;;19.96;36.64;99344.59;4487569;32;20091;-77
2022/07/17 03:12:14;;;;;;;3.33;1.10;;;;;;;20.09;36.38;99343.53;4487233;32;20077;-77
2022/07/17 03:14:39;;;;;;;4.22;1.30;;;;;;;20.03;36.45;99351.13;4487485;32;20404;-77
2022/07/17 03:17:05;;;;;;;5.00;1.10;;;;;;;20.05;36.31;99348.31;4459151;32;20380;-77
2022/07/17 03:19:30;;;;;;;3.45;1.00;;;;;;;20.14;36.10;99347.50;4459882;32;20092;-77
2022/07/17 03:21:55;;;;;;;4.82;1.10;;;;;;;20.18;35.92;99340.91;4487418;32;20106;-77
2022/07/17 03:24:21;;;;;;;4.43;1.15;;;;;;;20.13;36.05;99356.53;4487351;32;20143;-77
2022/07/17 03:26:46;;;;;;;2.83;1.00;;;;;;;20.20;35.93;99348.81;4487353;32;20140;-77
2022/07/17 03:29:12;;;;;;;3.83;1.17;;;;;;;20.22;35.92;99366.44;4460037;32;20087;-77
2022/07/17 03:31:38;;;;;;;3.45;1.30;;;;;;;20.01;36.24;99365.56;4487125;32;20080;-77
2022/07/17 03:34:03;;;;;;;3.90;0.90;;;;;;;20.26;35.79;99374.19;4487178;32;20404;-77
2022/07/17 03:36:29;;;;;;;4.18;1.00;;;;;;;20.09;36.19;99371.16;4487217;32;20412;-77
2022/07/17 03:38:54;;;;;;;3.55;1.10;;;;;;;19.96;36.52;99379.34;4472831;32;20092;-77
2022/07/17 03:41:19;;;;;;;4.40;1.27;;;;;;;20.08;36.44;99372.12;4487118;32;20141;-77
2022/07/17 03:43:45;;;;;;;2.95;1.12;;;;;;;20.19;36.36;99374.72;4487348;32;20097;-77
2022/07/17 03:46:10;;;;;;;3.30;1.10;;;;;;;20.10;36.49;99375.50;4487426;32;20390;-77
2022/07/17 03:48:38;;;;;;;4.78;1.17;;;;;;;20.29;35.98;99376.63;4487371;32;20110;-77
2022/07/17 03:51:03;;;;;;;3.85;1.10;;;;;;;20.34;35.84;99375.25;4487282;32;20155;-77
2022/07/17 03:53:29;;;;;;;4.07;0.93;;;;;;;20.50;35.57;99372.09;4487267;32;20443;-77
2022/07/17 03:55:54;;;;;;;3.47;0.90;;;;;;;20.64;35.28;99362.88;4487425;32;20470;-77
2022/07/17 03:58:19;;;;;;;3.53;1.00;;;;;;;20.62;35.08;99371.06;4487315;32;20132;-77
2022/07/17 04:00:45;;;;;;;3.45;1.08;;;;;;;20.45;35.53;99376.16;4487417;32;20423;-77
2022/07/17 04:03:10;;;;;;;5.22;1.20;;;;;;;20.55;35.36;99379.72;4487351;32;20123;-77
2022/07/17 04:05:36;;;;;;;2.50;1.00;;;;;;;20.70;35.07;99381.09;4487402;32;20076;-77
2022/07/17 04:08:01;;;;;;;2.50;1.02;;;;;;;20.80;34.69;99378.44;4472953;32;20480;-77
2022/07/17 04:10:26;;;;;;;3.12;1.15;;;;;;;20.90;34.54;99390.06;4487035;32;20102;-77
2022/07/17 04:12:52;;;;;;;4.62;1.10;;;;;;;20.78;34.74;99389.31;4473051;32;20152;-77
2022/07/17 04:15:49;;;;;;;4.75;1.10;;;;;;;20.87;34.69;99395.69;4487222;32;20096;-77
2022/07/17 04:18:03;;;;;;;4.00;1.12;;;;;;;21.00;34.87;99400.81;4486884;32;20092;-77
2022/07/17 04:20:28;;;;;;;5.60;1.35;;;;;;;21.32;34.46;99397.09;4486802;32;20080;-77
2022/07/17 04:22:54;;;;;;;4.65;1.15;;;;;;;21.57;34.82;99401.13;4486867;32;20152;-77
2022/07/17 04:25:20;;;;;;;4.75;1.08;;;;;;;21.63;35.01;99410.44;4486912;32;20096;-77
2022/07/17 04:27:45;;;;;;;6.05;1.33;;;;;;;21.29;34.46;99408.94;4472190;32;20356;-77
2022/07/17 04:30:10;;;;;;;4.75;1.10;;;;;;;21.33;34.87;99415.72;4486805;32;20106;-77
2022/07/17 04:32:36;;;;;;;4.10;1.17;;;;;;;21.20;34.93;99417.81;4486597;32;20093;-77
2022/07/17 04:35:02;;;;;;;2.28;0.90;;;;;;;21.13;35.38;99413.97;4472517;32;20101;-77
2022/07/17 04:37:27;;;;;;;4.60;1.27;;;;;;;21.08;35.31;99413.53;4486696;32;20465;-77
2022/07/17 04:39:53;;;;;;;5.85;1.10;;;;;;;21.12;35.28;99417.62;4472465;32;20102;-76
2022/07/17 04:42:18;;;;;;;3.78;1.20;;;;;;;21.13;35.54;99422.00;4472398;32;20151;-77
2022/07/17 04:44:44;;;;;;;5.05;1.10;;;;;;;20.93;35.69;99418.41;4486705;32;20126;-77
2022/07/17 04:47:09;;;;;;;4.82;1.30;;;;;;;20.86;36.47;99418.12;4486593;32;20133;-77
2022/07/17 04:49:34;;;;;;;2.50;0.98;;;;;;;21.05;36.42;99421.84;4486542;32;20106;-77
2022/07/17 04:52:01;;;;;;;4.68;1.25;;;;;;;21.54;35.08;99422.88;4486570;32;20113;-77
2022/07/17 04:54:26;;;;;;;4.30;1.17;;;;;;;21.57;34.84;99433.31;4472406;32;20247;-77
2022/07/17 04:56:52;;;;;;;4.32;1.02;;;;;;;21.59;35.04;99434.88;4472211;32;20453;-77
2022/07/17 04:59:17;;;;;;;7.03;1.23;;;;;;;21.99;34.44;99433.91;4472097;32;20149;-77
2022/07/17 05:01:42;;;;;;;3.92;1.10;;;;;;;22.25;33.43;99437.87;4486434;32;20089;-76
2022/07/17 05:04:08;;;;;;;4.37;1.10;;;;;;;22.20;33.77;99424.88;4486405;32;20393;-76
2022/07/17 05:06:33;;;;;;;3.70;1.20;;;;;;;21.90;34.31;99434.75;4486349;32;20141;-77
2022/07/17 05:08:59;;;;;;;2.45;0.90;;;;;;;22.34;33.86;99426.28;4486362;32;20130;-77
2022/07/17 05:11:24;;;;;;;3.08;0.90;;;;;;;22.61;33.43;99435.44;4486285;32;20153;-77
2022/07/17 05:13:50;;;;;;;4.95;1.25;;;;;;;22.51;33.27;99436.28;4472026;32;20445;-77
2022/07/17 05:16:15;;;;;;;2.90;1.02;;;;;;;22.53;33.33;99441.53;4486253;32;20449;-77
2022/07/17 05:18:40;;;;;;;3.58;0.90;;;;;;;22.45;33.15;99442.25;4486017;32;20092;-77
2022/07/17 05:21:06;;;;;;;4.05;1.10;;;;;;;22.16;33.26;99443.09;4486012;32;20402;-77
2022/07/17 05:23:31;;;;;;;2.87;0.95;;;;;;;22.69;32.95;99440.91;4486090;32;20093;-76
2022/07/17 05:25:57;;;;;;;3.05;1.00;;;;;;;22.79;32.17;99441.72;4486006;32;20098;-77
2022/07/17 05:28:22;;;;;;;3.47;0.90;;;;;;;22.38;32.25;99444.66;4486045;32;20080;-77
2022/07/17 05:30:48;;;;;;;2.28;0.80;;;;;;;22.62;31.85;99445.16;4485997;32;20479;-77
2022/07/17 05:33:13;;;;;;;3.87;1.00;;;;;;;22.47;31.81;99442.94;4485924;32;20088;-77
2022/07/17 05:35:38;;;;;;;5.43;1.00;;;;;;;22.92;31.11;99453.00;4486006;32;20511;-77
2022/07/17 05:38:05;;;;;;;3.08;0.80;;;;;;;23.08;31.02;99443.50;4485941;32;20112;-77
2022/07/17 05:40:30;;;;;;;2.80;1.00;;;;;;;23.33;30.34;99441.97;4486911;32;20199;-77
2022/07/17 05:42:56;;;;;;;4.05;1.05;;;;;;;23.46;29.38;99447.00;4488079;32;20115;-77
2022/07/17 05:45:21;;;;;;;5.22;0.98;;;;;;;23.07;30.71;99455.25;4488087;32;20087;-77
2022/07/17 05:47:47;;;;;;;4.47;1.05;;;;;;;23.00;30.25;99454.13;4487982;32;20088;-77
2022/07/17 05:50:12;;;;;;;3.58;0.90;;;;;;;23.10;30.50;99454.94;4487919;32;20092;-77
2022/07/17 05:52:38;;;;;;;4.05;0.95;;;;;;;23.29;30.35;99459.41;4488045;32;20088;-77
2022/07/17 05:55:04;;;;;;;3.80;0.77;;;;;;;23.14;29.98;99448.28;4487980;32;20107;-76
2022/07/17 05:57:29;;;;;;;3.28;1.00;;;;;;;22.71;30.39;99460.41;4487811;32;20088;-77
2022/07/17 05:59:55;;;;;;;1.35;0.80;;;;;;;22.94;29.39;99466.28;4487955;32;20116;-77
2022/07/17 06:02:20;;;;;;;3.72;0.80;;;;;;;23.29;28.99;99462.09;4487935;32;20089;-77
2022/07/17 06:04:46;;;;;;;4.45;0.75;;;;;;;23.28;28.67;99468.47;4487854;32;20431;-77
2022/07/17 06:07:11;;;;;;;1.70;0.70;;;;;;;23.37;28.88;99462.19;4487921;32;20420;-77
2022/07/17 06:09:37;;;;;;;4.00;0.70;;;;;;;23.27;28.89;99464.06;4487747;32;20112;-76
2022/07/17 06:12:02;;;;;;;4.22;0.85;;;;;;;23.17;29.02;99461.44;4487875;32;20110;-76
2022/07/17 06:14:28;;;;;;;2.03;0.90;;;;;;;23.58;29.20;99471.84;4473580;32;20080;-77
2022/07/17 06:16:53;;;;;;;4.70;0.85;;;;;;;23.26;28.97;99473.16;4487775;32;20084;-77
2022/07/17 06:19:18;;;;;;;4.65;0.88;;;;;;;23.37;28.69;99462.19;4487783;32;20100;-77
2022/07/17 06:21:44;;;;;;;6.07;0.95;;;;;;;22.89;29.49;99474.81;4473574;32;20096;-77
2022/07/17 06:24:09;;;;;;;2.67;0.93;;;;;;;23.03;29.56;99483.44;4487818;32;20439;-77
2022/07/17 06:26:35;;;;;;;3.78;0.88;;;;;;;23.21;29.72;99472.75;4487690;32;20072;-77
2022/07/17 06:29:00;;;;;;;2.28;0.82;;;;;;;23.44;29.14;99474.03;4487648;32;20108;-77
2022/07/17 06:31:26;;;;;;;4.15;0.75;;;;;;;23.28;28.90;99477.38;4473489;32;20160;-77
2022/07/17 06:33:51;;;;;;;3.10;0.98;;;;;;;23.55;28.22;99479.22;4487531;32;20394;-76
2022/07/17 06:36:17;;;;;;;4.55;0.88;;;;;;;23.49;27.41;99485.22;4487596;32;20120;-77
2022/07/17 06:38:42;;;;;;;3.35;0.80;;;;;;;23.58;27.32;99478.06;4487627;32;20123;-77
2022/07/17 06:41:08;;;;;;;4.07;0.90;;;;;;;23.73;27.31;99489.16;4487711;32;20128;-76
2022/07/17 06:43:33;;;;;;;3.08;0.90;;;;;;;23.51;26.91;99490.44;4473310;32;20148;-76
2022/07/17 06:45:58;;;;;;;3.28;0.98;;;;;;;23.68;26.87;99486.06;4473390;32;20144;-77
2022/07/17 06:48:24;;;;;;;2.53;0.77;;;;;;;23.64;27.03;99490.94;4487464;32;20096;-76
2022/07/17 06:50:49;;;;;;;1.73;0.60;;;;;;;24.10;26.41;99490.94;4487508;32;20108;-77
2022/07/17 06:53:15;;;;;;;4.20;0.90;;;;;;;24.17;26.24;99485.78;4487444;32;20231;-77
2022/07/17 06:55:42;;;;;;;2.28;0.70;;;;;;;24.16;26.07;99481.41;4473189;32;20111;-77
2022/07/17 06:58:07;;;;;;;5.25;1.23;;;;;;;24.09;26.27;99482.00;4487579;32;20109;-77
2022/07/17 07:00:33;;;;;;;2.60;0.70;;;;;;;24.13;26.17;99479.88;4487514;32;20088;-77
2022/07/17 07:02:58;;;;;;;2.78;0.80;;;;;;;24.16;26.42;99481.41;4487296;32;20191;-77
2022/07/17 07:05:24;;;;;;;3.80;0.93;;;;;;;24.32;25.96;99485.09;4487477;32;20080;-77
2022/07/17 07:07:49;;;;;;;2.22;0.70;;;;;;;24.40;26.03;99491.56;4473190;32;20192;-77
2022/07/17 07:10:15;;;;;;;4.55;0.85;;;;;;;24.54;25.65;99488.31;4487739;32;20088;-77
2022/07/17 07:12:41;;;;;;;4.82;0.73;;;;;;;24.63;25.75;99483.84;4487677;32;20073;-76
2022/07/17 07:15:07;;;;;;;2.40;0.70;;;;;;;24.32;25.71;99485.09;4487626;32;20098;-77
2022/07/17 07:17:34;;;;;;;3.17;0.77;;;;;;;24.25;25.74;99493.94;4473410;32;20160;-77
2022/07/17 07:20:00;;;;;;;3.17;1.00;;;;;;;24.19;25.99;99500.78;4473223;32;20468;-76
2022/07/17 07:22:26;;;;;;;3.25;0.80;;;;;;;24.11;25.52;99508.78;4487626;32;20088;-76
2022/07/17 07:24:51;;;;;;;2.53;0.70;;;;;;;24.15;25.95;99499.41;4487498;32;20099;-77
2022/07/17 07:27:17;;;;;;;2.85;0.80;;;;;;;24.14;25.58;99492.31;4487636;32;20380;-77
2022/07/17 07:29:42;;;;;;;3.95;0.90;;;;;;;24.23;25.59;99496.78;4487633;32;20088;-77
2022/07/17 07:32:07;;;;;;;3.00;1.00;;;;;;;24.19;25.90;99494.56;4487624;32;20416;-77
2022/07/17 07:34:33;;;;;;;2.72;0.62;;;;;;;24.31;25.04;99490.63;4473228;32;20115;-77
2022/07/17 07:36:58;;;;;;;1.87;0.73;;;;;;;24.34;25.22;99503.78;4460169;32;20196;-77
2022/07/17 07:39:24;;;;;;;4.97;0.90;;;;;;;23.98;25.25;99501.06;4487531;32;20424;-77
2022/07/17 07:41:49;;;;;;;4.60;0.80;;;;;;;24.28;24.77;99499.88;4487270;32;20157;-77
2022/07/17 07:44:15;;;;;;;2.60;0.80;;;;;;;24.33;24.58;99496.69;4472845;32;20390;-77
2022/07/17 07:46:40;;;;;;;3.00;0.70;;;;;;;24.42;24.20;99478.78;4487213;32;20092;-77
2022/07/17 07:49:06;;;;;;;4.18;1.50;;;;;;;24.34;24.76;99495.72;4472935;32;20128;-77
2022/07/17 07:51:31;;;;;;;3.70;0.70;;;;;;;24.09;25.10;99495.47;4487253;32;20389;-77
2022/07/17 07:53:57;;;;;;;4.75;1.17;;;;;;;24.37;25.49;99498.06;4487133;32;20110;-77
2022/07/17 07:56:22;;;;;;;2.40;0.77;;;;;;;24.63;25.20;99502.72;4487143;32;20494;-77
2022/07/17 07:58:48;;;;;;;2.87;0.80;;;;;;;24.70;24.30;99493.81;4487183;32;20345;-77
2022/07/17 08:01:13;;;;;;;3.92;0.85;;;;;;;24.73;24.16;99492.69;4487103;32;20428;-77
2022/07/17 08:03:38;;;;;;;3.30;0.80;;;;;;;24.52;25.19;99512.72;4486418;32;20120;-77
2022/07/17 08:06:04;;;;;;;2.22;0.80;;;;;;;24.24;25.22;99494.91;4487164;32;20108;-77
2022/07/17 08:08:29;;;;;;;3.78;0.70;;;;;;;24.63;25.23;99489.25;4487097;32;20114;-77
2022/07/17 08:10:55;;;;;;;3.75;0.80;;;;;;;24.77;24.90;99498.59;4486880;32;20131;-77
2022/07/17 08:13:20;;;;;;;4.05;0.90;;;;;;;24.84;24.82;99495.12;4486886;32;20080;-77
2022/07/17 08:15:46;;;;;;;6.12;0.82;;;;;;;24.74;24.75;99515.91;4487046;32;20103;-77
2022/07/17 08:18:11;;;;;;;2.40;0.80;;;;;;;24.87;24.87;99507.41;4472667;32;20411;-77
2022/07/17 08:20:37;;;;;;;3.00;0.70;;;;;;;24.69;25.19;99507.47;4472585;32;20084;-77
2022/07/17 08:23:02;;;;;;;3.08;0.70;;;;;;;24.69;25.32;99504.78;4472566;32;20481;-77
2022/07/17 08:25:28;;;;;;;3.85;0.70;;;;;;;24.62;25.89;99511.78;4486879;32;20128;-77
2022/07/17 08:27:53;;;;;;;4.05;0.90;;;;;;;24.61;25.75;99508.25;4486828;32;20173;-77
2022/07/17 08:30:19;;;;;;;2.70;0.85;;;;;;;24.68;25.39;99519.22;4487144;32;20120;-77
2022/07/17 08:32:44;;;;;;;3.47;0.90;;;;;;;24.47;25.30;99506.94;4459424;32;20088;-77
2022/07/17 08:35:11;;;;;;;3.62;0.88;;;;;;;24.69;25.25;99513.69;4459377;32;20432;-76
2022/07/17 08:37:45;;;;;;;4.03;0.93;;;;;;;24.50;24.48;99514.69;4486811;32;20531;-77
2022/07/17 08:40:19;;;;;;;4.10;1.10;;;;;;;24.67;24.71;99518.41;4472384;32;20118;-76
2022/07/17 08:42:44;;;;;;;2.60;0.80;;;;;;;24.62;23.77;99519.88;4472581;32;20096;-77
2022/07/17 08:45:11;;;;;;;4.68;0.82;;;;;;;24.90;24.08;99518.72;4472609;32;20104;-77
2022/07/17 08:47:38;;;;;;;4.53;1.00;;;;;;;25.06;23.58;99514.47;4487151;32;20122;-77
2022/07/17 08:50:04;;;;;;;2.40;0.80;;;;;;;25.03;23.14;99509.38;4472681;32;20209;-76
2022/07/17 08:52:30;;;;;;;3.00;0.80;;;;;;;24.74;23.43;99521.28;4486556;32;20084;-76
2022/07/17 08:54:56;;;;;;;3.97;1.00;;;;;;;24.76;24.34;99510.38;4472333;32;20136;-77
2022/07/17 08:57:22;;;;;;;2.17;0.73;;;;;;;24.90;24.65;99507.97;4472355;32;20108;-77
2022/07/17 08:59:47;;;;;;;3.20;0.90;;;;;;;24.76;24.88;99508.50;4486351;32;20135;-77
2022/07/17 09:02:13;;;;;;;3.42;0.88;;;;;;;24.89;24.86;99525.12;4486449;32;20085;-76
2022/07/17 09:04:39;;;;;;;4.70;1.00;;;;;;;24.86;24.82;99522.75;4471881;32;20144;-77
2022/07/17 09:07:05;;;;;;;3.08;0.62;;;;;;;25.00;24.73;99515.09;4486503;32;20546;-77
2022/07/17 09:09:33;;;;;;;1.60;0.80;;;;;;;25.04;24.70;99513.78;4486392;32;20088;-77
2022/07/17 09:12:00;;;;;;;2.78;0.77;;;;;;;25.01;24.80;99514.91;4486251;32;20084;-77
2022/07/17 09:14:40;;;;;;;3.07;0.83;;;;;;;25.02;24.77;99516.62;4486237;32;20104;-77
2022/07/17 09:17:07;;;;;;;3.00;0.80;;;;;;;25.28;23.77;99505.84;4488359;32;20118;-77
2022/07/17 09:19:36;;;;;;;5.07;0.90;;;;;;;25.32;23.51;99503.66;4488055;32;20089;-77
2022/07/17 09:22:14;;;;;;;5.90;1.05;;;;;;;25.25;24.07;99506.16;4488188;32;20226;-77
2022/07/17 09:24:51;;;;;;;3.97;0.82;;;;;;;25.29;23.38;99490.50;4473927;32;20116;-77
2022/07/17 09:27:33;;;;;;;3.80;0.70;;;;;;;25.30;23.36;99501.16;4488157;32;20084;-77
2022/07/17 09:30:04;;;;;;;2.90;0.82;;;;;;;25.41;23.62;99501.84;4488196;32;20076;-77
2022/07/17 09:32:33;;;;;;;2.10;0.80;;;;;;;25.56;23.31;99489.44;4488105;32;20472;-77
2022/07/17 09:35:01;;;;;;;3.92;1.23;;;;;;;25.61;23.41;99503.31;4473761;32;20159;-77
2022/07/17 09:37:28;;;;;;;2.90;0.73;;;;;;;25.51;23.51;99492.63;4488200;32;20130;-76
2022/07/17 09:39:54;;;;;;;4.00;0.68;;;;;;;25.54;22.85;99501.41;4488138;32;20568;-77
2022/07/17 09:42:27;;;;;;;5.37;1.05;;;;;;;25.37;23.66;99497.81;4473841;32;20111;-77
2022/07/17 09:44:56;;;;;;;4.18;0.80;;;;;;;25.20;23.68;99489.59;4460750;32;20108;-77
2022/07/17 09:47:23;;;;;;;3.45;0.80;;;;;;;25.35;23.80;99495.25;4488043;32;20096;-77
2022/07/17 09:49:48;;;;;;;2.80;0.90;;;;;;;25.11;24.12;99482.44;4473792;32;20080;-77
2022/07/17 09:52:15;;;;;;;2.58;0.73;;;;;;;25.21;23.69;99483.19;4473804;32;20137;-77
2022/07/17 09:54:40;;;;;;;3.00;0.70;;;;;;;25.30;23.46;99478.72;4473614;32;20112;-76
2022/07/17 09:57:06;;;;;;;4.93;0.93;;;;;;;25.42;23.48;99487.34;4487960;32;20092;-77
2022/07/17 09:59:35;;;;;;;2.00;0.75;;;;;;;25.44;23.75;99488.91;4473812;32;20092;-77
2022/07/17 10:02:00;;;;;;;2.40;0.73;;;;;;;25.36;23.87;99490.69;4487871;32;20107;-77
2022/07/17 10:04:26;;;;;;;5.43;0.82;;;;;;;25.31;23.15;99480.41;4473668;32;20092;-77
2022/07/17 10:06:53;;;;;;;3.70;0.90;;;;;;;25.60;23.41;99492.66;4472970;32;20100;-77
2022/07/17 10:09:19;;;;;;;3.03;0.80;;;;;;;25.67;23.03;99485.59;4487928;32;20085;-77
2022/07/17 10:11:45;;;;;;;2.90;0.80;;;;;;;25.63;23.34;99497.72;4473550;32;20088;-77
2022/07/17 10:14:12;;;;;;;3.03;0.90;;;;;;;25.57;22.47;99492.97;4487746;32;20161;-77
2022/07/17 10:16:39;;;;;;;3.87;0.90;;;;;;;25.45;22.78;99495.97;4473625;32;20104;-77
2022/07/17 10:19:21;;;;;;;4.55;0.93;;;;;;;25.57;22.89;99499.22;4487559;32;20131;-77
2022/07/17 10:21:58;;;;;;;2.33;0.80;;;;;;;25.62;22.74;99480.69;4487098;32;20127;-77
2022/07/17 10:24:24;;;;;;;3.78;0.82;;;;;;;25.42;23.29;99482.81;4486997;32;20122;-77
2022/07/17 10:26:50;;;;;;;2.00;0.68;;;;;;;25.67;23.24;99481.06;4472253;32;20131;-77
2022/07/17 10:29:58;;;;;;;3.40;0.80;;;;;;;25.68;23.02;99477.34;4472553;32;20416;-77
2022/07/17 10:32:24;;;;;;;2.60;0.93;;;;;;;25.65;23.39;99477.69;4394771;32;20089;-77
2022/07/17 10:35:00;;;;;;;3.35;1.00;;;;;;;25.65;22.81;99483.06;4407482;32;20205;-77
2022/07/17 10:37:35;;;;;;;5.07;0.90;;;;;;;25.80;22.39;99474.34;4407274;32;20157;-77
2022/07/17 10:40:10;;;;;;;2.65;0.88;;;;;;;25.78;22.39;99473.66;4394943;32;20382;-77
2022/07/17 10:42:56;;;;;;;4.87;1.00;;;;;;;25.61;23.18;99481.72;4407121;32;20285;-77
2022/07/17 10:45:42;;;;;;;4.25;0.90;;;;;;;25.74;22.65;99483.94;4407145;32;20181;-77
2022/07/17 10:48:11;;;;;;;5.22;1.05;;;;;;;25.75;22.23;99471.28;4407230;32;20144;-77
2022/07/17 10:50:40;;;;;;;6.35;0.95;;;;;;;25.95;21.94;99464.62;4394558;32;20287;-77
2022/07/17 10:53:26;;;;;;;3.65;0.77;;;;;;;25.92;21.94;99472.19;4407097;32;20085;-77
2022/07/17 10:56:05;;;;;;;3.28;0.75;;;;;;;25.93;21.23;99458.53;4407038;32;20126;-77
2022/07/17 10:58:33;;;;;;;4.07;1.02;;;;;;;26.11;21.24;99479.16;4407055;32;20176;-77
2022/07/17 11:01:16;;;;;;;4.10;0.90;;;;;;;25.76;21.57;99467.56;4394349;32;20107;-77
2022/07/17 11:03:47;;;;;;;3.17;0.90;;;;;;;25.99;21.32;99470.53;4394446;32;20137;-77
2022/07/17 11:06:18;;;;;;;3.33;0.80;;;;;;;26.06;20.51;99460.75;4406976;32;20109;-77
2022/07/17 11:09:10;;;;;;;3.28;0.82;;;;;;;25.63;21.26;99465.34;4461853;32;20164;-77
2022/07/17 11:11:41;;;;;;;4.50;1.00;;;;;;;25.83;21.08;99461.34;4486575;32;20084;-77
2022/07/17 11:14:12;;;;;;;3.50;0.70;;;;;;;25.75;21.03;99450.56;4486299;32;20108;-76
2022/07/17 11:16:46;;;;;;;3.65;1.10;;;;;;;25.83;21.23;99450.56;4472228;32;20104;-77
2022/07/17 11:19:12;;;;;;;3.45;0.70;;;;;;;25.90;20.54;99453.44;4481427;32;165017;-76
2022/07/17 11:21:45;;;;;;;4.25;1.10;;;;;;;26.18;20.26;99440.50;4473176;32;20088;-76
2022/07/17 11:24:11;;;;;;;2.78;0.73;;;;;;;26.07;20.37;99452.47;4473191;32;20092;-77
2022/07/17 11:26:37;;;;;;;3.20;0.77;;;;;;;26.09;20.62;99450.44;4487373;32;20104;-77
2022/07/17 11:29:02;;;;;;;4.07;0.80;;;;;;;26.31;20.18;99444.53;4487390;32;20119;-77
2022/07/17 11:31:29;;;;;;;2.47;0.70;;;;;;;26.54;19.64;99436.59;4487306;32;20108;-77
2022/07/17 11:33:59;;;;;;;5.30;0.80;;;;;;;26.26;19.89;99443.19;4487446;32;20110;-76